Rock Hill, Texas
Current Conditions -  °F | °C
As of 8:35 AM on Sunday 23 Nov 2014 (Local Time) from KJDD Reporting Station
Haze Haze  
Wind Chill: 61°   Ceiling: 200
Heat Index: 61°   Visibility: 0.75mi
Dew Point: 61°   Wind: 0mph
Humidity: 100%   Direction: NA
Pressure: 29.6"   Gusts: NA
Location:  32.7982°N, 95.4046°W
Report Text: KJDD 231435Z AUTO 00000KT 3/4SM BR OVC002 16/16 A2960 RMK AO2
Loading
Personal Weather Stations






























Interactive Weather Map New forecast layout! Learn more

10-Day Weather Forecast

Advertisements
Track Severe Weather on mobile